createdAt,value
2019-06-08T00:00:27.895Z,100502.22
2019-06-08T00:02:59.925Z,100497.59
2019-06-08T00:05:32.025Z,100491.02
2019-06-08T00:08:04.116Z,100495.78
2019-06-08T00:10:35.962Z,100497.77
2019-06-08T00:13:08.010Z,100489.38
2019-06-08T00:15:40.824Z,100490.58
2019-06-08T00:18:15.250Z,100491.97
2019-06-08T00:20:47.312Z,100499.13
2019-06-08T00:23:20.259Z,100502.31
2019-06-08T00:25:53.251Z,100500.50
2019-06-08T00:28:25.126Z,100506.85
2019-06-08T00:30:57.083Z,100501.61
2019-06-08T00:33:28.843Z,100501.78
2019-06-08T00:36:00.786Z,100508.56
2019-06-08T00:38:32.687Z,100500.36
2019-06-08T00:41:04.705Z,100499.92
2019-06-08T00:43:36.493Z,100495.32
2019-06-08T00:46:08.350Z,100498.29
2019-06-08T00:48:40.215Z,100495.88
2019-06-08T00:51:12.076Z,100488.69
2019-06-08T00:53:43.854Z,100488.45
2019-06-08T00:56:15.794Z,100487.29
2019-06-08T00:58:47.762Z,100491.25
2019-06-08T01:01:22.077Z,100485.08
2019-06-08T01:03:53.445Z,100489.64
2019-06-08T01:06:25.664Z,100488.25
2019-06-08T01:08:57.937Z,100492.23
2019-06-08T01:11:29.927Z,100494.59
2019-06-08T01:14:01.881Z,100491.59
2019-06-08T01:16:33.972Z,100490.40
2019-06-08T01:19:06.059Z,100494.18
2019-06-08T01:21:38.064Z,100495.78
2019-06-08T01:24:10.087Z,100498.51
2019-06-08T01:26:42.195Z,100494.29
2019-06-08T01:29:14.204Z,100495.45
2019-06-08T01:31:46.149Z,100490.48
2019-06-08T01:34:18.100Z,100495.45
2019-06-08T01:36:50.167Z,100500.45
2019-06-08T01:39:23.038Z,100513.40
2019-06-08T01:41:55.100Z,100517.11
2019-06-08T01:44:28.086Z,100525.04
2019-06-08T01:47:00.205Z,100521.60
2019-06-08T01:49:32.564Z,100520.20
2019-06-08T01:52:04.433Z,100522.02
2019-06-08T01:54:36.954Z,100526.64
2019-06-08T01:57:10.063Z,100526.64
2019-06-08T01:59:42.321Z,100526.64
2019-06-08T02:02:14.571Z,100522.45
2019-06-08T02:04:46.596Z,100525.83
2019-06-08T02:07:18.625Z,100528.25
2019-06-08T02:09:50.688Z,100525.86
2019-06-08T02:12:22.752Z,100528.45
2019-06-08T02:14:54.839Z,100528.25
2019-06-08T02:17:27.347Z,100521.06
2019-06-08T02:19:59.441Z,100525.83
2019-06-08T02:22:31.445Z,100530.62
2019-06-08T02:25:03.504Z,100526.75
2019-06-08T02:27:35.878Z,100529.53
2019-06-08T02:30:17.267Z,100531.92
2019-06-08T02:32:49.495Z,100532.08
2019-06-08T02:35:21.826Z,100530.04
2019-06-08T02:37:53.839Z,100529.25
2019-06-08T02:40:27.401Z,100532.25
2019-06-08T02:42:59.530Z,100527.05
2019-06-08T02:45:32.583Z,100531.81
2019-06-08T02:48:05.474Z,100524.83
2019-06-08T02:50:51.883Z,100528.03
2019-06-08T02:53:24.507Z,100519.41
2019-06-08T02:55:56.550Z,100526.39
2019-06-08T02:58:29.242Z,100525.61
2019-06-08T03:01:01.783Z,100528.40
2019-06-08T03:03:35.734Z,100529.80
2019-06-08T03:06:08.682Z,100533.38
2019-06-08T03:08:42.100Z,100533.98
2019-06-08T03:11:14.568Z,100531.60
2019-06-08T03:13:47.109Z,100530.20
2019-06-08T03:16:19.143Z,100537.02
2019-06-08T03:18:51.287Z,100537.63
2019-06-08T03:21:23.522Z,100533.65
2019-06-08T03:23:55.411Z,100527.05
2019-06-08T03:26:27.371Z,100529.46
2019-06-08T03:28:59.513Z,100518.09
2019-06-08T03:31:34.599Z,100522.65
2019-06-08T03:34:06.676Z,100523.27
2019-06-08T03:36:46.748Z,100523.12
2019-06-08T03:39:12.405Z,100524.94
2019-06-08T03:41:45.158Z,100528.37
2019-06-08T03:44:17.890Z,100528.37
2019-06-08T03:46:49.815Z,100528.99
2019-06-08T03:49:40.292Z,100533.45
2019-06-08T03:51:55.910Z,100531.62
2019-06-08T03:54:27.774Z,100533.08
2019-06-08T03:56:59.915Z,100536.72
2019-06-08T03:59:32.110Z,100538.73
2019-06-08T04:02:04.282Z,100537.98
2019-06-08T04:04:37.798Z,100538.05
2019-06-08T04:07:09.604Z,100534.89
2019-06-08T04:09:43.480Z,100542.52
2019-06-08T04:12:17.350Z,100540.57
2019-06-08T04:14:50.467Z,100547.55
2019-06-08T04:17:22.457Z,100546.56
2019-06-08T04:20:09.325Z,100550.95
2019-06-08T04:22:28.173Z,100547.41
2019-06-08T04:25:00.350Z,100555.80
2019-06-08T04:27:32.299Z,100556.38
2019-06-08T04:30:07.435Z,100558.80
2019-06-08T04:32:40.713Z,100566.42
2019-06-08T04:35:12.866Z,100562.87
2019-06-08T04:37:46.800Z,100563.08
2019-06-08T04:40:18.562Z,100560.32
2019-06-08T04:42:51.095Z,100563.17
2019-06-08T04:45:23.308Z,100561.16
2019-06-08T04:47:55.476Z,100566.37
2019-06-08T04:50:27.536Z,100567.23
2019-06-08T04:52:59.931Z,100562.28
2019-06-08T04:55:32.082Z,100566.50
2019-06-08T04:58:04.246Z,100560.73
2019-06-08T05:00:36.516Z,100557.39
2019-06-08T05:03:08.793Z,100553.84
2019-06-08T05:05:43.339Z,100553.48
2019-06-08T05:08:15.473Z,100554.53
2019-06-08T05:10:47.633Z,100557.56
2019-06-08T05:13:21.352Z,100553.42
2019-06-08T05:15:53.516Z,100553.30
2019-06-08T05:18:26.154Z,100562.53
2019-06-08T05:20:58.366Z,100558.17
2019-06-08T05:23:30.433Z,100566.01
2019-06-08T05:26:02.563Z,100574.66
2019-06-08T05:28:36.094Z,100576.51
2019-06-08T05:31:08.214Z,100576.53
2019-06-08T05:33:41.324Z,100576.98
2019-06-08T05:36:13.315Z,100578.23
2019-06-08T05:38:45.745Z,100576.90
2019-06-08T05:41:17.814Z,100579.53
2019-06-08T05:43:50.098Z,100583.56
2019-06-08T05:46:22.257Z,100582.41
2019-06-08T05:48:54.368Z,100583.88
2019-06-08T05:51:26.407Z,100582.92
2019-06-08T05:53:58.733Z,100590.39
2019-06-08T05:56:30.548Z,100586.63
2019-06-08T05:59:02.645Z,100580.66
2019-06-08T06:01:34.702Z,100585.92
2019-06-08T06:04:06.847Z,100579.33
2019-06-08T06:06:40.356Z,100578.98
2019-06-08T06:09:12.324Z,100587.41
2019-06-08T06:11:44.806Z,100575.05
2019-06-08T06:14:16.958Z,100572.91
2019-06-08T06:16:49.144Z,100572.33
2019-06-08T06:19:20.946Z,100579.57
2019-06-08T06:21:52.803Z,100575.41
2019-06-08T06:24:26.190Z,100575.41
2019-06-08T06:26:58.236Z,100580.03
2019-06-08T06:29:30.098Z,100574.84
2019-06-08T06:32:03.062Z,100576.67
2019-06-08T06:34:34.847Z,100568.28
2019-06-08T06:37:06.720Z,100571.92
2019-06-08T06:39:38.630Z,100567.73
2019-06-08T06:42:10.538Z,100574.55
2019-06-08T06:44:42.293Z,100569.14
2019-06-08T06:47:14.105Z,100566.54
2019-06-08T06:49:46.529Z,100568.73
2019-06-08T06:52:18.533Z,100566.33
2019-06-08T06:54:51.243Z,100568.14
2019-06-08T06:57:23.079Z,100569.52
2019-06-08T06:59:56.341Z,100565.30
2019-06-08T07:02:28.643Z,100562.11
2019-06-08T07:05:00.708Z,100562.70
2019-06-08T07:07:32.672Z,100560.08
2019-06-08T07:10:07.979Z,100556.05
2019-06-08T07:12:40.084Z,100558.05
2019-06-08T07:15:14.090Z,100547.98
2019-06-08T07:17:46.146Z,100552.37
2019-06-08T07:20:17.920Z,100549.95
2019-06-08T07:22:50.277Z,100551.12
2019-06-08T07:25:22.611Z,100552.72
2019-06-08T07:27:55.097Z,100553.11
2019-06-08T07:30:27.287Z,100553.05
2019-06-08T07:32:59.477Z,100539.78
2019-06-08T07:35:32.354Z,100542.75
2019-06-08T07:38:04.137Z,100546.94
2019-06-08T07:40:36.473Z,100542.66
2019-06-08T07:43:08.652Z,100540.41
2019-06-08T07:45:40.611Z,100541.56
2019-06-08T07:48:12.679Z,100544.55
2019-06-08T07:50:44.699Z,100538.67
2019-06-08T07:53:16.571Z,100536.00
2019-06-08T07:55:49.969Z,100543.73
2019-06-08T07:58:22.035Z,100541.25
2019-06-08T08:00:54.930Z,100541.20
2019-06-08T08:03:27.567Z,100543.52
2019-06-08T08:05:59.630Z,100532.80
2019-06-08T08:08:33.112Z,100534.95
2019-06-08T08:11:06.619Z,100539.48
2019-06-08T08:13:39.872Z,100536.78
2019-06-08T08:16:11.816Z,100541.49
2019-06-08T08:18:43.704Z,100534.74
2019-06-08T08:21:23.230Z,100530.62
2019-06-08T08:23:50.225Z,100527.95
2019-06-08T08:26:23.072Z,100523.61
2019-06-08T08:28:57.101Z,100519.30
2019-06-08T08:31:28.636Z,100516.41
2019-06-08T08:34:05.831Z,100511.87
2019-06-08T08:36:34.562Z,100514.79
2019-06-08T08:39:08.529Z,100511.01
2019-06-08T08:41:40.600Z,100512.51
2019-06-08T08:44:12.440Z,100505.39
2019-06-08T08:46:44.235Z,100506.61
2019-06-08T08:49:18.246Z,100512.33
2019-06-08T08:51:50.643Z,100511.63
2019-06-08T08:54:22.946Z,100507.09
2019-06-08T08:57:00.714Z,100508.81
2019-06-08T08:59:28.717Z,100508.25
2019-06-08T09:02:02.602Z,100505.36
2019-06-08T09:04:34.090Z,100502.49
2019-06-08T09:07:09.627Z,100498.05
2019-06-08T09:09:39.473Z,100499.56
2019-06-08T09:12:12.356Z,100496.62
2019-06-08T09:14:44.318Z,100498.69
2019-06-08T09:17:18.109Z,100507.66
2019-06-08T09:19:52.378Z,100499.17
2019-06-08T09:22:24.793Z,100494.26
2019-06-08T09:25:02.479Z,100490.58
2019-06-08T09:27:33.218Z,100473.97
2019-06-08T09:30:08.326Z,100486.18
2019-06-08T09:32:40.013Z,100487.59
2019-06-08T09:35:12.590Z,100485.33
2019-06-08T09:37:44.651Z,100471.92
2019-06-08T09:40:16.514Z,100470.00
2019-06-08T09:42:50.829Z,100464.27
2019-06-08T09:45:22.180Z,100460.00
2019-06-08T09:47:55.320Z,100447.20
2019-06-08T09:50:27.794Z,100450.31
2019-06-08T09:53:14.808Z,100451.65
2019-06-08T09:55:33.205Z,100447.32
2019-06-08T09:58:09.424Z,100445.91
2019-06-08T10:00:39.590Z,100438.66
2019-06-08T10:03:12.158Z,100444.23
2019-06-08T10:05:44.119Z,100437.11
2019-06-08T10:08:20.274Z,100437.55
2019-06-08T10:10:49.695Z,100449.83
2019-06-08T10:13:21.498Z,100458.23
2019-06-08T10:15:54.925Z,100451.51
2019-06-08T10:18:28.597Z,100464.70
2019-06-08T10:21:02.886Z,100455.72
2019-06-08T10:23:34.837Z,100457.66
2019-06-08T10:26:07.009Z,100458.03
2019-06-08T10:28:39.210Z,100465.36
2019-06-08T10:31:12.235Z,100453.38
2019-06-08T10:33:44.403Z,100446.75
2019-06-08T10:36:18.243Z,100452.79
2019-06-08T10:38:50.170Z,100452.27
2019-06-08T10:41:24.076Z,100451.91
2019-06-08T10:43:57.175Z,100453.26
2019-06-08T10:46:29.231Z,100451.91
2019-06-08T10:49:01.987Z,100458.98
2019-06-08T10:51:34.384Z,100470.41
2019-06-08T10:54:09.337Z,100466.45
2019-06-08T10:56:44.341Z,100468.65
2019-06-08T10:59:18.345Z,100470.34
2019-06-08T11:01:49.694Z,100473.08
2019-06-08T11:04:21.761Z,100477.06
2019-06-08T11:06:54.025Z,100473.72
2019-06-08T11:09:28.441Z,100473.55
2019-06-08T11:12:01.506Z,100476.73
2019-06-08T11:14:34.160Z,100478.25
2019-06-08T11:17:09.578Z,100479.56
2019-06-08T11:19:40.304Z,100477.54
2019-06-08T11:22:14.006Z,100469.81
2019-06-08T11:24:48.412Z,100468.23
2019-06-08T11:27:20.229Z,100457.93
2019-06-08T11:29:52.220Z,100445.53
2019-06-08T11:32:24.282Z,100443.59
2019-06-08T11:34:56.368Z,100442.41
2019-06-08T11:37:28.241Z,100441.52
2019-06-08T11:40:00.193Z,100440.91
2019-06-08T11:42:31.949Z,100436.99
2019-06-08T11:45:09.433Z,100442.92
2019-06-08T11:47:40.789Z,100429.35
2019-06-08T11:50:13.469Z,100425.02
2019-06-08T11:52:45.738Z,100427.63
2019-06-08T11:55:18.106Z,100428.86
2019-06-08T11:57:50.482Z,100426.59
2019-06-08T12:00:48.901Z,100424.78
2019-06-08T12:03:21.063Z,100420.81
2019-06-08T12:05:52.878Z,100426.45
2019-06-08T12:08:24.599Z,100422.59
2019-06-08T12:11:01.195Z,100423.97
2019-06-08T12:13:29.834Z,100418.41
2019-06-08T12:16:02.978Z,100410.42
2019-06-08T12:18:34.966Z,100408.38
2019-06-08T12:21:08.659Z,100402.48
2019-06-08T12:23:40.348Z,100403.67
2019-06-08T12:26:12.323Z,100404.52
2019-06-08T12:28:44.119Z,100402.20
2019-06-08T12:31:21.422Z,100395.74
2019-06-08T12:33:49.508Z,100395.35
2019-06-08T12:36:21.276Z,100383.54
2019-06-08T12:38:53.234Z,100383.73
2019-06-08T12:41:25.548Z,100370.20
2019-06-08T12:43:58.042Z,100377.52
2019-06-08T12:46:30.231Z,100374.55
2019-06-08T12:49:02.097Z,100377.02
2019-06-08T12:51:34.259Z,100366.48
2019-06-08T12:54:09.506Z,100364.93
2019-06-08T12:56:40.033Z,100360.53
2019-06-08T12:59:16.169Z,100345.56
2019-06-08T13:01:48.246Z,100354.28
2019-06-08T13:04:23.141Z,100348.76
2019-06-08T13:06:53.414Z,100345.76
2019-06-08T13:09:29.729Z,100342.92
2019-06-08T13:11:59.805Z,100349.22
2019-06-08T13:14:31.962Z,100351.25
2019-06-08T13:17:04.336Z,100346.83
2019-06-08T13:19:38.510Z,100350.94
2019-06-08T13:22:10.786Z,100341.13
2019-06-08T13:24:42.677Z,100344.42
2019-06-08T13:27:15.494Z,100338.07
2019-06-08T13:29:49.881Z,100340.91
2019-06-08T13:32:22.044Z,100337.72
2019-06-08T13:34:54.008Z,100341.16
2019-06-08T13:37:27.588Z,100338.31
2019-06-08T13:39:59.807Z,100332.82
2019-06-08T13:42:31.756Z,100332.52
2019-06-08T13:45:07.548Z,100331.58
2019-06-08T13:47:41.411Z,100327.69
2019-06-08T13:50:14.905Z,100324.59
2019-06-08T13:52:48.418Z,100334.77
2019-06-08T13:55:35.987Z,100334.31
2019-06-08T13:57:54.575Z,100325.99
2019-06-08T14:00:38.602Z,100327.41
2019-06-08T14:03:10.380Z,100321.88
2019-06-08T14:05:42.319Z,100316.05
2019-06-08T14:08:14.722Z,100320.47
2019-06-08T14:10:48.256Z,100319.84
2019-06-08T14:13:26.803Z,100323.35
2019-06-08T14:15:54.291Z,100321.28
2019-06-08T14:18:32.169Z,100325.64
2019-06-08T14:21:00.267Z,100327.97
2019-06-08T14:23:32.634Z,100320.42
2019-06-08T14:26:04.651Z,100321.02
2019-06-08T14:28:38.053Z,100330.73
2019-06-08T14:31:11.109Z,100325.34
2019-06-08T14:33:43.018Z,100324.42
2019-06-08T14:36:15.111Z,100335.45
2019-06-08T14:38:49.472Z,100335.14
2019-06-08T14:41:20.994Z,100333.50
2019-06-08T14:43:52.951Z,100334.63
2019-06-08T14:46:26.024Z,100331.78
2019-06-08T14:48:59.409Z,100341.44
2019-06-08T14:51:49.364Z,100346.08
2019-06-08T14:54:25.172Z,100348.80
2019-06-08T14:56:54.669Z,100355.55
2019-06-08T14:59:29.891Z,100357.84
2019-06-08T15:01:59.866Z,100365.53
2019-06-08T15:04:36.012Z,100360.53
2019-06-08T15:07:05.189Z,100374.35
2019-06-08T15:09:37.534Z,100375.70
2019-06-08T15:12:09.565Z,100376.16
2019-06-08T15:14:42.522Z,100384.55
2019-06-08T15:17:14.349Z,100378.66
2019-06-08T15:19:47.554Z,100389.01
2019-06-08T15:22:20.838Z,100388.58
2019-06-08T15:24:53.123Z,100385.59
2019-06-08T15:27:26.495Z,100390.44
2019-06-08T15:29:58.991Z,100391.05
2019-06-08T15:32:35.016Z,100394.42
2019-06-08T15:35:08.122Z,100399.03
2019-06-08T15:37:40.924Z,100392.29
2019-06-08T15:40:13.078Z,100391.24
2019-06-08T15:42:45.039Z,100397.69
2019-06-08T15:45:18.310Z,100397.41
2019-06-08T15:47:50.397Z,100392.28
2019-06-08T15:50:22.463Z,100395.45
2019-06-08T15:52:54.794Z,100392.28
2019-06-08T15:55:29.877Z,100401.33
2019-06-08T15:58:00.398Z,100405.03
2019-06-08T16:00:33.252Z,100398.84
2019-06-08T16:03:06.063Z,100398.94
2019-06-08T16:05:37.967Z,100396.28
2019-06-08T16:08:09.989Z,100398.84
2019-06-08T16:10:42.060Z,100397.50
2019-06-08T16:13:13.821Z,100403.09
2019-06-08T16:15:45.654Z,100404.23
2019-06-08T16:18:17.946Z,100401.33
2019-06-08T16:20:50.012Z,100408.48
2019-06-08T16:23:22.078Z,100407.16
2019-06-08T16:25:54.139Z,100412.98
2019-06-08T16:28:26.106Z,100417.75
2019-06-08T16:30:58.580Z,100420.51
2019-06-08T16:33:33.120Z,100414.14
2019-06-08T16:36:05.402Z,100410.82
2019-06-08T16:38:38.343Z,100416.37
2019-06-08T16:41:10.740Z,100419.55
2019-06-08T16:43:43.101Z,100427.58
2019-06-08T16:46:15.169Z,100423.14
2019-06-08T16:48:47.028Z,100428.77
2019-06-08T16:51:19.263Z,100424.06
2019-06-08T16:53:51.672Z,100426.25
2019-06-08T16:56:23.559Z,100420.70
2019-06-08T16:58:55.446Z,100427.73
2019-06-08T17:01:28.361Z,100419.23
2019-06-08T17:04:00.267Z,100413.55
2019-06-08T17:06:33.544Z,100422.78
2019-06-08T17:09:07.214Z,100422.31
2019-06-08T17:11:39.223Z,100427.09
2019-06-08T17:14:11.066Z,100424.42
2019-06-08T17:16:42.925Z,100419.97
2019-06-08T17:19:14.842Z,100424.77
2019-06-08T17:21:46.740Z,100423.72
2019-06-08T17:24:18.668Z,100425.07
2019-06-08T17:26:50.530Z,100421.82
2019-06-08T17:29:22.377Z,100425.39
2019-06-08T17:31:54.255Z,100432.81
2019-06-08T17:34:26.128Z,100426.16
2019-06-08T17:36:58.116Z,100428.16
2019-06-08T17:39:31.741Z,100424.25
2019-06-08T17:42:03.976Z,100425.22
2019-06-08T17:44:36.486Z,100432.38
2019-06-08T17:47:08.426Z,100428.50
2019-06-08T17:49:40.734Z,100433.81
2019-06-08T17:52:12.588Z,100429.52
2019-06-08T17:54:44.488Z,100431.81
2019-06-08T17:57:16.376Z,100426.48
2019-06-08T17:59:48.430Z,100428.79
2019-06-08T18:02:27.323Z,100434.48
2019-06-08T18:04:54.402Z,100432.96
2019-06-08T18:07:27.759Z,100451.14
2019-06-08T18:09:59.678Z,100448.02
2019-06-08T18:12:33.950Z,100449.34
2019-06-08T18:15:09.130Z,100451.42
2019-06-08T18:17:42.666Z,100455.32
2019-06-08T18:20:17.836Z,100456.19
2019-06-08T18:22:50.154Z,100447.02
2019-06-08T18:25:22.354Z,100453.91
2019-06-08T18:28:08.944Z,100453.16
2019-06-08T18:30:28.546Z,100463.84
2019-06-08T18:33:01.256Z,100463.10
2019-06-08T18:35:33.212Z,100472.97
2019-06-08T18:38:07.135Z,100475.00
2019-06-08T18:40:40.479Z,100473.65
2019-06-08T18:43:12.686Z,100474.67
2019-06-08T18:45:46.317Z,100475.51
2019-06-08T18:48:19.067Z,100482.36
2019-06-08T18:50:50.931Z,100481.59
2019-06-08T18:53:22.789Z,100487.02
2019-06-08T18:55:54.852Z,100483.44
2019-06-08T18:58:27.976Z,100491.28
2019-06-08T19:01:00.108Z,100492.92
2019-06-08T19:03:32.175Z,100489.69
2019-06-08T19:06:04.135Z,100489.48
2019-06-08T19:08:40.254Z,100488.52
2019-06-08T19:11:10.724Z,100495.75
2019-06-08T19:13:42.766Z,100506.77
2019-06-08T19:16:14.757Z,100510.19
2019-06-08T19:18:52.118Z,100518.01
2019-06-08T19:21:20.421Z,100508.59
2019-06-08T19:23:52.484Z,100509.78
2019-06-08T19:26:24.558Z,100512.02
2019-06-08T19:28:57.925Z,100508.80
2019-06-08T19:31:30.045Z,100512.40
2019-06-08T19:34:02.147Z,100516.61
2019-06-08T19:36:34.041Z,100521.78
2019-06-08T19:39:07.945Z,100521.18
2019-06-08T19:41:41.018Z,100525.20
2019-06-08T19:44:13.386Z,100520.58
2019-06-08T19:46:49.536Z,100528.17
2019-06-08T19:49:18.945Z,100528.58
2019-06-08T19:51:53.915Z,100530.95
2019-06-08T19:54:24.337Z,100531.16
2019-06-08T19:56:57.456Z,100532.56
2019-06-08T19:59:30.541Z,100531.95
2019-06-08T20:02:02.706Z,100531.95
2019-06-08T20:04:34.575Z,100528.33
2019-06-08T20:07:08.696Z,100535.92
2019-06-08T20:09:41.203Z,100533.08
2019-06-08T20:12:13.088Z,100551.11
2019-06-08T20:14:45.441Z,100550.84
2019-06-08T20:17:19.439Z,100551.42
2019-06-08T20:19:51.536Z,100551.84
2019-06-08T20:22:23.666Z,100557.41
2019-06-08T20:24:56.384Z,100550.39
2019-06-08T20:27:28.116Z,100550.58
2019-06-08T20:29:59.888Z,100556.38
2019-06-08T20:32:32.329Z,100549.33
2019-06-08T20:35:08.024Z,100548.52
2019-06-08T20:37:41.484Z,100554.92
2019-06-08T20:40:14.374Z,100546.91
2019-06-08T20:42:51.571Z,100542.70
2019-06-08T20:45:22.517Z,100540.68
2019-06-08T20:47:54.818Z,100534.68
2019-06-08T20:50:27.175Z,100531.64
2019-06-08T20:52:59.256Z,100529.45
2019-06-08T20:55:31.082Z,100532.84
2019-06-08T20:58:02.838Z,100526.81
2019-06-08T21:00:34.671Z,100524.43
2019-06-08T21:03:08.248Z,100522.80
2019-06-08T21:05:40.171Z,100532.01
2019-06-08T21:08:12.010Z,100528.00
2019-06-08T21:10:44.289Z,100523.17
2019-06-08T21:13:17.936Z,100523.98
2019-06-08T21:15:53.629Z,100522.16
2019-06-08T21:18:23.889Z,100519.36
2019-06-08T21:20:57.866Z,100524.76
2019-06-08T21:23:31.999Z,100535.95
2019-06-08T21:26:02.851Z,100531.13
2019-06-08T21:28:34.603Z,100534.11
2019-06-08T21:31:08.364Z,100531.50
2019-06-08T21:33:39.962Z,100537.84
2019-06-08T21:36:11.718Z,100535.61
2019-06-08T21:38:43.788Z,100540.61
2019-06-08T21:41:17.191Z,100545.17
2019-06-08T21:43:53.071Z,100546.97
2019-06-08T21:46:22.720Z,100553.33
2019-06-08T21:48:54.640Z,100555.72
2019-06-08T21:51:26.544Z,100546.52
2019-06-08T21:53:59.199Z,100536.09
2019-06-08T21:56:31.928Z,100536.09
2019-06-08T21:59:03.791Z,100541.28
2019-06-08T22:01:37.587Z,100528.69
2019-06-08T22:04:09.519Z,100548.91
2019-06-08T22:06:41.321Z,100552.92
2019-06-08T22:09:13.168Z,100557.31
2019-06-08T22:11:47.116Z,100551.84
2019-06-08T22:14:18.618Z,100550.17
2019-06-08T22:16:52.098Z,100548.30
2019-06-08T22:19:24.284Z,100539.89
2019-06-08T22:21:59.791Z,100527.64
2019-06-08T22:24:29.741Z,100516.78
2019-06-08T22:27:02.026Z,100547.14
2019-06-08T22:29:34.914Z,100546.84
2019-06-08T22:32:07.572Z,100557.17
2019-06-08T22:34:39.748Z,100557.16
2019-06-08T22:37:11.790Z,100566.30
2019-06-08T22:39:43.643Z,100570.67
2019-06-08T22:42:17.604Z,100563.47
2019-06-08T22:44:49.134Z,100570.03
2019-06-08T22:47:20.981Z,100566.82
2019-06-08T22:49:54.759Z,100557.04
2019-06-08T22:52:27.795Z,100556.45
2019-06-08T22:55:04.042Z,100560.04
2019-06-08T22:57:33.440Z,100555.00
2019-06-08T23:00:14.571Z,100568.19
2019-06-08T23:02:40.517Z,100559.37
2019-06-08T23:05:12.485Z,100553.41
2019-06-08T23:07:44.227Z,100550.61
2019-06-08T23:10:17.477Z,100548.45
2019-06-08T23:12:49.422Z,100567.23
2019-06-08T23:15:21.159Z,100567.00
2019-06-08T23:17:52.937Z,100572.16
2019-06-08T23:20:24.900Z,100562.16
2019-06-08T23:22:58.608Z,100559.75
2019-06-08T23:25:30.479Z,100572.13
2019-06-08T23:28:03.357Z,100578.50
2019-06-08T23:30:38.075Z,100578.06
2019-06-08T23:33:11.235Z,100583.07
2019-06-08T23:36:08.214Z,100588.28
2019-06-08T23:38:17.381Z,100590.84
2019-06-08T23:40:49.632Z,100603.22
2019-06-08T23:43:22.622Z,100605.19
2019-06-08T23:45:54.581Z,100611.56
2019-06-08T23:48:27.887Z,100609.15
2019-06-08T23:51:00.549Z,100599.27
2019-06-08T23:53:32.521Z,100605.09
2019-06-08T23:56:06.079Z,100604.66
2019-06-08T23:58:38.080Z,100615.02
